Danmark — OXDK — position and weather

sailwx.info

Track history (hours):
 
Tides and Currents Weather Stations Pressure Air Temp Water Temp Dewpoint Dewpoint Depression Visibility Wind Speed Wind Dir Waves Ship Positions

Danmark (Denmark)

Last reported at 2019-Jun-25 06:52 UTC. Time now 2019-Sep-17 08:48 UTC.
Position N 55°29' E 008°25'.
Warning: this ship's position is months out of date.

Length 60 m; beam 10 m; draft 5 m.

Type: Sailing vessel. MMSI: 219500000.

Date/timePositionNaut miles runAvg speedWind from/ knotsBaromVisibWave heightAir tempDewpointWater temp
2019-Jun-25 06:52N 55°29' E 008°25'97 4.6
2019-Jun-24 10:00N 57°05' E 008°25'4 7.8
2019-Jun-24 09:29N 57°08' E 008°29'4 7.3
2019-Jun-24 09:00N 57°11' E 008°35'4 7.4
2019-Jun-24 08:30N 57°13' E 008°40'4 7.3
2019-Jun-24 08:00N 57°14' E 008°46'4 7.1
2019-Jun-24 07:30N 57°16' E 008°52'4 7.1
2019-Jun-24 07:00N 57°18' E 008°57'4 7.3
2019-Jun-24 06:30N 57°20' E 009°03'4 7.2
2019-Jun-24 06:00N 57°21' E 009°09'4 7.3
2019-Jun-24 05:30N 57°23' E 009°15'4 7.2
2019-Jun-24 05:00N 57°24' E 009°21'4 7.1
2019-Jun-24 04:30N 57°26' E 009°27'4 7.2
2019-Jun-24 04:00N 57°28' E 009°33'18 7.3
2019-Jun-24 01:30N 57°38' E 010°01'4 7.1
2019-Jun-24 01:00N 57°40' E 010°07'4 7.2
2019-Jun-24 00:30N 57°41' E 010°13'4 7.2
2019-Jun-24 00:00N 57°42' E 010°20'4 7.1
2019-Jun-23 23:30N 57°44' E 010°25'3 7.0
2019-Jun-23 23:00N 57°45' E 010°31'3 6.5
2019-Jun-23 22:30N 57°46' E 010°37'3 6.8
2019-Jun-23 22:00N 57°46' E 010°43'2 3.0
2019-Jun-23 21:30N 57°45' E 010°44'3 5.8
2019-Jun-23 21:00N 57°43' E 010°39'2 4.5
2019-Jun-23 20:30N 57°42' E 010°35'0 0.8
2019-Jun-23 20:00N 57°42' E 010°34'0 0.0
2019-Jun-23 19:27N 57°42' E 010°34'11 1.0
2019-Jun-23 08:30N 57°33' E 010°43'3 6.5
2019-Jun-23 08:01N 57°30' E 010°44'4 7.3
2019-Jun-23 07:31N 57°26' E 010°44'4 7.2
2019-Jun-23 07:00N 57°23' E 010°44'4 7.8
2019-Jun-23 06:30N 57°19' E 010°42'4 7.5
2019-Jun-23 06:01N 57°15' E 010°43'4 7.3
2019-Jun-23 05:31N 57°11' E 010°43'4 7.2
2019-Jun-23 05:01N 57°08' E 010°43'3 6.9
2019-Jun-23 04:31N 57°04' E 010°44'3 6.6
2019-Jun-23 04:00N 57°01' E 010°44'3 6.6
2019-Jun-23 03:31N 56°58' E 010°44'3 6.4
2019-Jun-23 03:00N 56°54' E 010°45'6 6.3
2019-Jun-23 01:59N 56°49' E 010°52'3 6.5
2019-Jun-23 01:31N 56°47' E 010°56'3 6.0
2019-Jun-23 01:00N 56°45' E 010°60'7 5.8
2019-Jun-22 23:48N 56°38' E 011°01'87 3.6
2019-Jun-21 23:22N 55°11' E 010°49'0 0.0
2019-Jun-21 21:58N 55°11' E 010°49'0 0.0
2019-Jun-21 21:28N 55°11' E 010°49'0 0.0
2019-Jun-21 20:58N 55°11' E 010°49'0 0.0
2019-Jun-21 20:04N 55°11' E 010°49'0 0.0
2019-Jun-21 19:58N 55°11' E 010°49'0 0.0
2019-Jun-21 19:28N 55°11' E 010°49'0 0.0
2019-Jun-21 18:58N 55°11' E 010°49'0 0.0
2019-Jun-21 18:28N 55°11' E 010°49'0 0.0
2019-Jun-21 17:58N 55°11' E 010°49'0 0.0
2019-Jun-21 17:28N 55°11' E 010°49'0 0.0
2019-Jun-21 16:58N 55°11' E 010°49'0 0.0
2019-Jun-21 16:22N 55°11' E 010°49'0 0.0
2019-Jun-21 15:58N 55°11' E 010°49'0 0.0
2019-Jun-21 15:28N 55°11' E 010°49'0 0.0
2019-Jun-21 14:58N 55°11' E 010°49'0 0.0
2019-Jun-21 14:28N 55°11' E 010°49'0 0.0
2019-Jun-21 13:52N 55°11' E 010°49'0 0.0
2019-Jun-21 13:28N 55°11' E 010°49'0 0.0
2019-Jun-21 11:52N 55°11' E 010°49'0 0.0
2019-Jun-21 11:13N 55°11' E 010°49'0 0.0
2019-Jun-21 10:55N 55°11' E 010°49'0 0.1
2019-Jun-21 10:16N 55°11' E 010°49'0 0.0
2019-Jun-21 09:28N 55°11' E 010°49'0 0.0
2019-Jun-21 08:55N 55°11' E 010°49'0 0.0
2019-Jun-21 08:22N 55°11' E 010°49'0 0.0
2019-Jun-21 07:58N 55°11' E 010°49'0 0.0
2019-Jun-21 07:25N 55°11' E 010°49'0 0.0
2019-Jun-21 06:55N 55°11' E 010°49'0 0.0
2019-Jun-21 06:16N 55°11' E 010°49'0 0.0
2019-Jun-21 05:43N 55°11' E 010°49'0 0.0
2019-Jun-21 05:28N 55°11' E 010°49'0 0.1
2019-Jun-21 04:46N 55°11' E 010°49'0 0.0
2019-Jun-21 03:43N 55°11' E 010°49'0 0.0
2019-Jun-21 03:28N 55°11' E 010°49'0 0.0
2019-Jun-21 02:28N 55°11' E 010°49'0 0.0
2019-Jun-21 01:49N 55°11' E 010°49'6 4.6
2019-Jun-21 00:30N 55°16' E 010°54'3 5.2
2019-Jun-21 00:00N 55°15' E 010°58'3 6.2
2019-Jun-20 23:30N 55°12' E 010°59'3 6.3
2019-Jun-20 23:00N 55°09' E 010°59'3 6.6
2019-Jun-20 22:30N 55°05' E 010°58'3 6.9
2019-Jun-20 22:00N 55°02' E 010°57'3 6.9
2019-Jun-20 21:30N 54°59' E 010°56'3 6.5
2019-Jun-20 21:00N 54°56' E 010°55'3 6.0
2019-Jun-20 20:33N 54°53' E 010°54'0 5.7
2019-Jun-20 20:30N 54°53' E 010°54'2 6.0
2019-Jun-20 20:09N 54°50' E 010°54'7 6.0
2019-Jun-20 19:00N 54°44' E 010°57'2 5.7
2019-Jun-20 18:36N 54°42' E 011°00'1 5.6
2019-Jun-20 18:30N 54°42' E 011°01'3 5.7
2019-Jun-20 18:00N 54°40' E 011°05'3 6.1
2019-Jun-20 17:30N 54°39' E 011°09'3 5.6
2019-Jun-20 17:00N 54°37' E 011°13'3 5.2
2019-Jun-20 16:30N 54°36' E 011°17'3 5.1
2019-Jun-20 16:00N 54°35' E 011°21'3 5.2
2019-Jun-20 15:30N 54°33' E 011°25'3 5.4
2019-Jun-20 15:00N 54°32' E 011°29'2 4.6
2019-Jun-20 14:30N 54°30' E 011°32'2 4.7
2019-Jun-20 14:00N 54°29' E 011°36'2 4.9
2019-Jun-20 13:30N 54°28' E 011°40'3 5.0
2019-Jun-20 13:00N 54°28' E 011°44'2 4.6
2019-Jun-20 12:30N 54°28' E 011°48'3 5.4
2019-Jun-20 11:59N 54°28' E 011°52'1 1.6
2019-Jun-20 11:30N 54°28' E 011°54'1 1.3
2019-Jun-20 10:58N 54°27' E 011°55'3 5.5
2019-Jun-20 10:29N 54°27' E 011°59'3 5.4
2019-Jun-20 10:00N 54°27' E 012°03'3 5.3
2019-Jun-20 09:30N 54°27' E 012°08'3 4.9
2019-Jun-20 08:52N 54°30' E 012°11'3 5.1
2019-Jun-20 08:14N 54°33' E 012°12'1 5.0
2019-Jun-20 07:57N 54°35' E 012°13'2 4.9
2019-Jun-20 07:30N 54°37' E 012°15'2 4.9
2019-Jun-20 07:00N 54°39' E 012°17'3 5.0
2019-Jun-20 06:30N 54°40' E 012°20'2 4.7
2019-Jun-20 06:00N 54°41' E 012°24'3 4.9
2019-Jun-20 05:29N 54°42' E 012°28'2 4.5
2019-Jun-20 05:00N 54°43' E 012°31'2 4.6
2019-Jun-20 04:30N 54°45' E 012°34'3 5.4
2019-Jun-20 04:00N 54°46' E 012°39'3 5.6
2019-Jun-20 03:30N 54°47' E 012°43'4 5.1
2019-Jun-20 02:49N 54°47' E 012°49'1 1.7
2019-Jun-20 02:00N 54°46' E 012°49'1 2.0
2019-Jun-20 01:28N 54°45' E 012°50'2 3.2
2019-Jun-20 00:58N 54°44' E 012°53'2 3.2
2019-Jun-20 00:30N 54°43' E 012°55'4 1.5
2019-Jun-19 21:56N 54°44' E 013°02'3 1.5
2019-Jun-19 20:02N 54°44' E 013°07'2 4.7
2019-Jun-19 19:39N 54°44' E 013°10'7 5.4
2019-Jun-19 18:25N 54°45' E 013°21'2 5.2
2019-Jun-19 18:00N 54°45' E 013°25'22 4.8
2019-Jun-19 13:18N 54°55' E 013°60'2 4.2
2019-Jun-19 12:55N 54°56' E 014°02'1 3.3
2019-Jun-19 12:28N 54°56' E 014°05'2 4.0
2019-Jun-19 11:54N 54°57' E 014°08'2 4.9
2019-Jun-19 11:29N 54°58' E 014°11'3 5.2
2019-Jun-19 11:00N 54°60' E 014°15'3 5.5
2019-Jun-19 10:29N 55°01' E 014°19'3 5.5
2019-Jun-19 10:00N 55°03' E 014°23'3 5.4
2019-Jun-19 09:30N 55°04' E 014°27'3 5.7
2019-Jun-19 09:00N 55°06' E 014°31'3 5.2
2019-Jun-19 08:30N 55°07' E 014°35'2 4.0
2019-Jun-19 08:00N 55°08' E 014°38'2 3.5
2019-Jun-19 07:30N 55°06' E 014°39'1 2.0
2019-Jun-19 06:50N 55°06' E 014°42'0 0.0
2019-Jun-19 06:26N 55°06' E 014°42'0 0.0
2019-Jun-19 05:56N 55°06' E 014°42'0 0.0
2019-Jun-19 05:26N 55°06' E 014°42'0 0.0
2019-Jun-19 04:56N 55°06' E 014°42'0 0.0
2019-Jun-19 04:26N 55°06' E 014°42'0 0.0
2019-Jun-19 03:56N 55°06' E 014°42'0 0.0
2019-Jun-19 03:20N 55°06' E 014°42'0 0.1
2019-Jun-19 02:56N 55°06' E 014°42'0 0.0
2019-Jun-19 01:56N 55°06' E 014°42'0 0.0
2019-Jun-19 01:26N 55°06' E 014°42'0 0.0
2019-Jun-19 00:56N 55°06' E 014°42'0 0.0
2019-Jun-19 00:29N 55°06' E 014°42'0 0.0
2019-Jun-18 23:59N 55°06' E 014°42'0 0.0
2019-Jun-18 23:29N 55°06' E 014°42'0 0.0
2019-Jun-18 22:56N 55°06' E 014°42'0 0.0
2019-Jun-18 22:29N 55°06' E 014°42'0 0.0
2019-Jun-18 21:56N 55°06' E 014°42'0 0.0
2019-Jun-18 21:26N 55°06' E 014°42'0 0.0
2019-Jun-18 20:50N 55°06' E 014°42'0 0.0
2019-Jun-18 20:29N 55°06' E 014°42'0 0.0
2019-Jun-18 19:59N 55°06' E 014°42'0 0.0
2019-Jun-18 19:29N 55°06' E 014°42'0 0.0
2019-Jun-18 18:59N 55°06' E 014°42'0 0.0
2019-Jun-18 18:29N 55°06' E 014°42'0 0.0
2019-Jun-18 17:56N 55°06' E 014°42'0 0.0
2019-Jun-18 17:26N 55°06' E 014°42'0 0.0
2019-Jun-18 16:50N 55°06' E 014°42'0 0.0
2019-Jun-18 16:26N 55°06' E 014°42'0 0.0
2019-Jun-18 15:56N 55°06' E 014°42'0 0.0
2019-Jun-18 15:26N 55°06' E 014°42'0 0.0
2019-Jun-18 14:56N 55°06' E 014°42'0 0.0
2019-Jun-18 14:26N 55°06' E 014°42'0 0.0
2019-Jun-18 13:56N 55°06' E 014°42'0 0.0
2019-Jun-18 13:26N 55°06' E 014°42'0 0.0
2019-Jun-18 12:56N 55°06' E 014°42'0 0.0
2019-Jun-18 12:26N 55°06' E 014°42'0 0.0
2019-Jun-18 11:50N 55°06' E 014°42'0 0.0
2019-Jun-18 11:26N 55°06' E 014°42'0 0.0
2019-Jun-18 10:50N 55°06' E 014°42'0 0.0
2019-Jun-18 10:02N 55°06' E 014°42'0 0.1
2019-Jun-18 09:59N 55°06' E 014°42'0 0.0
2019-Jun-18 09:29N 55°06' E 014°42'0 0.0
2019-Jun-18 08:59N 55°06' E 014°42'0 0.0
2019-Jun-18 08:26N 55°06' E 014°42'0 0.0
2019-Jun-18 07:59N 55°06' E 014°42'0 0.3
2019-Jun-18 07:30N 55°06' E 014°42'2 3.9
2019-Jun-18 07:00N 55°05' E 014°38'2 4.7
2019-Jun-18 06:30N 55°05' E 014°34'2 4.5
2019-Jun-18 06:00N 55°04' E 014°30'2 4.4
2019-Jun-18 05:30N 55°04' E 014°27'2 4.3
2019-Jun-18 05:00N 55°03' E 014°23'2 4.3
2019-Jun-18 04:30N 55°03' E 014°19'2 4.3
2019-Jun-18 03:57N 55°02' E 014°15'2 4.4
2019-Jun-18 03:30N 55°02' E 014°12'2 4.4
2019-Jun-18 03:00N 55°01' E 014°08'65 2.4
2019-Jun-16 23:30N 55°43' E 012°41'1 2.8
2019-Jun-16 23:00N 55°44' E 012°41'1 2.8
2019-Jun-16 22:30N 55°45' E 012°40'1 2.2
2019-Jun-16 22:00N 55°46' E 012°40'1 2.3
2019-Jun-16 21:30N 55°48' E 012°39'1 2.8
2019-Jun-16 21:00N 55°49' E 012°38'2 3.0
2019-Jun-16 20:30N 55°50' E 012°37'2 3.3
2019-Jun-16 20:00N 55°52' E 012°37'2 3.7
2019-Jun-16 19:30N 55°54' E 012°37'2 4.2
2019-Jun-16 19:00N 55°56' E 012°38'2 3.7
2019-Jun-16 18:30N 55°58' E 012°38'2 3.6
2019-Jun-16 18:00N 55°59' E 012°38'2 4.1
2019-Jun-16 17:30N 56°01' E 012°38'2 3.8
2019-Jun-16 17:00N 56°03' E 012°38'2 4.2
2019-Jun-16 16:30N 56°05' E 012°35'2 3.3
2019-Jun-16 16:00N 56°06' E 012°33'3 3.4
2019-Jun-16 15:14N 56°07' E 012°29'1 4.5
2019-Jun-16 14:57N 56°08' E 012°27'4 5.5
2019-Jun-16 14:17N 56°09' E 012°21'67 3.7
2019-Jun-15 20:27N 56°48' E 010°42'3 6.6
2019-Jun-15 20:00N 56°51' E 010°43'3 6.3
2019-Jun-15 19:30N 56°54' E 010°43'4 6.1
2019-Jun-15 18:46N 56°58' E 010°44'2 6.2
2019-Jun-15 18:30N 56°60' E 010°44'3 6.2
2019-Jun-15 18:00N 57°03' E 010°43'3 6.3
2019-Jun-15 17:30N 57°06' E 010°43'3 6.2
2019-Jun-15 17:00N 57°09' E 010°42'3 5.7
2019-Jun-15 16:30N 57°12' E 010°42'2 4.8
2019-Jun-15 16:00N 57°14' E 010°41'2 4.5
2019-Jun-15 15:30N 57°16' E 010°40'2 4.0
2019-Jun-15 15:00N 57°18' E 010°39'2 3.3
2019-Jun-15 14:30N 57°20' E 010°38'2 4.2
2019-Jun-15 14:00N 57°22' E 010°37'2 4.6
2019-Jun-15 13:30N 57°24' E 010°35'2 4.0
2019-Jun-15 13:00N 57°26' E 010°34'1 1.1
2019-Jun-15 12:28N 57°26' E 010°32'0 0.0
2019-Jun-15 11:52N 57°26' E 010°32'0 0.0
2019-Jun-15 11:28N 57°26' E 010°32'0 0.0
2019-Jun-15 10:58N 57°26' E 010°32'0 0.0
2019-Jun-15 10:22N 57°26' E 010°32'0 0.0
2019-Jun-15 09:59N 57°26' E 010°32'0 0.0
2019-Jun-15 09:29N 57°26' E 010°32'0 0.0
2019-Jun-15 08:59N 57°26' E 010°32'0 0.0
2019-Jun-15 08:29N 57°26' E 010°32'0 0.0
2019-Jun-15 07:59N 57°26' E 010°32'0 0.0
2019-Jun-15 07:29N 57°26' E 010°32'0 0.0
2019-Jun-15 06:59N 57°26' E 010°32'  
Track history (hours):
 
Tides and Currents Weather Stations Pressure Air Temp Water Temp Dewpoint Dewpoint Depression Visibility Wind Speed Wind Dir Waves Ship Positions

Danmark (Denmark)

Last reported at 2019-Jun-25 06:52 UTC. Time now 2019-Sep-17 08:48 UTC.
Position N 55°29' E 008°25'.
Warning: this ship's position is months out of date.

Length 60 m; beam 10 m; draft 5 m.

Type: Sailing vessel. MMSI: 219500000.

Date/timePositionNaut miles runAvg speedWind from/ knotsBaromVisibWave heightAir tempDewpointWater temp
2019-Jun-25 06:52N 55°29' E 008°25'97 4.6
2019-Jun-24 10:00N 57°05' E 008°25'4 7.8
2019-Jun-24 09:29N 57°08' E 008°29'4 7.3
2019-Jun-24 09:00N 57°11' E 008°35'4 7.4
2019-Jun-24 08:30N 57°13' E 008°40'4 7.3
2019-Jun-24 08:00N 57°14' E 008°46'4 7.1
2019-Jun-24 07:30N 57°16' E 008°52'4 7.1
2019-Jun-24 07:00N 57°18' E 008°57'4 7.3
2019-Jun-24 06:30N 57°20' E 009°03'4 7.2
2019-Jun-24 06:00N 57°21' E 009°09'4 7.3
2019-Jun-24 05:30N 57°23' E 009°15'4 7.2
2019-Jun-24 05:00N 57°24' E 009°21'4 7.1
2019-Jun-24 04:30N 57°26' E 009°27'4 7.2
2019-Jun-24 04:00N 57°28' E 009°33'18 7.3
2019-Jun-24 01:30N 57°38' E 010°01'4 7.1
2019-Jun-24 01:00N 57°40' E 010°07'4 7.2
2019-Jun-24 00:30N 57°41' E 010°13'4 7.2
2019-Jun-24 00:00N 57°42' E 010°20'4 7.1
2019-Jun-23 23:30N 57°44' E 010°25'3 7.0
2019-Jun-23 23:00N 57°45' E 010°31'3 6.5
2019-Jun-23 22:30N 57°46' E 010°37'3 6.8
2019-Jun-23 22:00N 57°46' E 010°43'2 3.0
2019-Jun-23 21:30N 57°45' E 010°44'3 5.8
2019-Jun-23 21:00N 57°43' E 010°39'2 4.5
2019-Jun-23 20:30N 57°42' E 010°35'0 0.8
2019-Jun-23 20:00N 57°42' E 010°34'0 0.0
2019-Jun-23 19:27N 57°42' E 010°34'11 1.0
2019-Jun-23 08:30N 57°33' E 010°43'3 6.5
2019-Jun-23 08:01N 57°30' E 010°44'4 7.3
2019-Jun-23 07:31N 57°26' E 010°44'4 7.2
2019-Jun-23 07:00N 57°23' E 010°44'4 7.8
2019-Jun-23 06:30N 57°19' E 010°42'4 7.5
2019-Jun-23 06:01N 57°15' E 010°43'4 7.3
2019-Jun-23 05:31N 57°11' E 010°43'4 7.2
2019-Jun-23 05:01N 57°08' E 010°43'3 6.9
2019-Jun-23 04:31N 57°04' E 010°44'3 6.6
2019-Jun-23 04:00N 57°01' E 010°44'3 6.6
2019-Jun-23 03:31N 56°58' E 010°44'3 6.4
2019-Jun-23 03:00N 56°54' E 010°45'6 6.3
2019-Jun-23 01:59N 56°49' E 010°52'3 6.5
2019-Jun-23 01:31N 56°47' E 010°56'3 6.0
2019-Jun-23 01:00N 56°45' E 010°60'7 5.8
2019-Jun-22 23:48N 56°38' E 011°01'87 3.6
2019-Jun-21 23:22N 55°11' E 010°49'0 0.0
2019-Jun-21 21:58N 55°11' E 010°49'0 0.0
2019-Jun-21 21:28N 55°11' E 010°49'0 0.0
2019-Jun-21 20:58N 55°11' E 010°49'0 0.0
2019-Jun-21 20:04N 55°11' E 010°49'0 0.0
2019-Jun-21 19:58N 55°11' E 010°49'0 0.0
2019-Jun-21 19:28N 55°11' E 010°49'0 0.0
2019-Jun-21 18:58N 55°11' E 010°49'0 0.0
2019-Jun-21 18:28N 55°11' E 010°49'0 0.0
2019-Jun-21 17:58N 55°11' E 010°49'0 0.0
2019-Jun-21 17:28N 55°11' E 010°49'0 0.0
2019-Jun-21 16:58N 55°11' E 010°49'0 0.0
2019-Jun-21 16:22N 55°11' E 010°49'0 0.0
2019-Jun-21 15:58N 55°11' E 010°49'0 0.0
2019-Jun-21 15:28N 55°11' E 010°49'0 0.0
2019-Jun-21 14:58N 55°11' E 010°49'0 0.0
2019-Jun-21 14:28N 55°11' E 010°49'0 0.0
2019-Jun-21 13:52N 55°11' E 010°49'0 0.0
2019-Jun-21 13:28N 55°11' E 010°49'0 0.0
2019-Jun-21 11:52N 55°11' E 010°49'0 0.0
2019-Jun-21 11:13N 55°11' E 010°49'0 0.0
2019-Jun-21 10:55N 55°11' E 010°49'0 0.1
2019-Jun-21 10:16N 55°11' E 010°49'0 0.0
2019-Jun-21 09:28N 55°11' E 010°49'0 0.0
2019-Jun-21 08:55N 55°11' E 010°49'0 0.0
2019-Jun-21 08:22N 55°11' E 010°49'0 0.0
2019-Jun-21 07:58N 55°11' E 010°49'0 0.0
2019-Jun-21 07:25N 55°11' E 010°49'0 0.0
2019-Jun-21 06:55N 55°11' E 010°49'0 0.0
2019-Jun-21 06:16N 55°11' E 010°49'0 0.0
2019-Jun-21 05:43N 55°11' E 010°49'0 0.0
2019-Jun-21 05:28N 55°11' E 010°49'0 0.1
2019-Jun-21 04:46N 55°11' E 010°49'0 0.0
2019-Jun-21 03:43N 55°11' E 010°49'0 0.0
2019-Jun-21 03:28N 55°11' E 010°49'0 0.0
2019-Jun-21 02:28N 55°11' E 010°49'0 0.0
2019-Jun-21 01:49N 55°11' E 010°49'6 4.6
2019-Jun-21 00:30N 55°16' E 010°54'3 5.2
2019-Jun-21 00:00N 55°15' E 010°58'3 6.2
2019-Jun-20 23:30N 55°12' E 010°59'3 6.3
2019-Jun-20 23:00N 55°09' E 010°59'3 6.6
2019-Jun-20 22:30N 55°05' E 010°58'3 6.9
2019-Jun-20 22:00N 55°02' E 010°57'3 6.9
2019-Jun-20 21:30N 54°59' E 010°56'3 6.5
2019-Jun-20 21:00N 54°56' E 010°55'3 6.0
2019-Jun-20 20:33N 54°53' E 010°54'0 5.7
2019-Jun-20 20:30N 54°53' E 010°54'2 6.0
2019-Jun-20 20:09N 54°50' E 010°54'7 6.0
2019-Jun-20 19:00N 54°44' E 010°57'2 5.7
2019-Jun-20 18:36N 54°42' E 011°00'1 5.6
2019-Jun-20 18:30N 54°42' E 011°01'3 5.7
2019-Jun-20 18:00N 54°40' E 011°05'3 6.1
2019-Jun-20 17:30N 54°39' E 011°09'3 5.6
2019-Jun-20 17:00N 54°37' E 011°13'3 5.2
2019-Jun-20 16:30N 54°36' E 011°17'3 5.1
2019-Jun-20 16:00N 54°35' E 011°21'3 5.2
2019-Jun-20 15:30N 54°33' E 011°25'3 5.4
2019-Jun-20 15:00N 54°32' E 011°29'2 4.6
2019-Jun-20 14:30N 54°30' E 011°32'2 4.7
2019-Jun-20 14:00N 54°29' E 011°36'2 4.9
2019-Jun-20 13:30N 54°28' E 011°40'3 5.0
2019-Jun-20 13:00N 54°28' E 011°44'2 4.6
2019-Jun-20 12:30N 54°28' E 011°48'3 5.4
2019-Jun-20 11:59N 54°28' E 011°52'1 1.6
2019-Jun-20 11:30N 54°28' E 011°54'1 1.3
2019-Jun-20 10:58N 54°27' E 011°55'3 5.5
2019-Jun-20 10:29N 54°27' E 011°59'3 5.4
2019-Jun-20 10:00N 54°27' E 012°03'3 5.3
2019-Jun-20 09:30N 54°27' E 012°08'3 4.9
2019-Jun-20 08:52N 54°30' E 012°11'3 5.1
2019-Jun-20 08:14N 54°33' E 012°12'1 5.0
2019-Jun-20 07:57N 54°35' E 012°13'2 4.9
2019-Jun-20 07:30N 54°37' E 012°15'2 4.9
2019-Jun-20 07:00N 54°39' E 012°17'3 5.0
2019-Jun-20 06:30N 54°40' E 012°20'2 4.7
2019-Jun-20 06:00N 54°41' E 012°24'3 4.9
2019-Jun-20 05:29N 54°42' E 012°28'2 4.5
2019-Jun-20 05:00N 54°43' E 012°31'2 4.6
2019-Jun-20 04:30N 54°45' E 012°34'3 5.4
2019-Jun-20 04:00N 54°46' E 012°39'3 5.6
2019-Jun-20 03:30N 54°47' E 012°43'4 5.1
2019-Jun-20 02:49N 54°47' E 012°49'1 1.7
2019-Jun-20 02:00N 54°46' E 012°49'1 2.0
2019-Jun-20 01:28N 54°45' E 012°50'2 3.2
2019-Jun-20 00:58N 54°44' E 012°53'2 3.2
2019-Jun-20 00:30N 54°43' E 012°55'4 1.5
2019-Jun-19 21:56N 54°44' E 013°02'3 1.5
2019-Jun-19 20:02N 54°44' E 013°07'2 4.7
2019-Jun-19 19:39N 54°44' E 013°10'7 5.4
2019-Jun-19 18:25N 54°45' E 013°21'2 5.2
2019-Jun-19 18:00N 54°45' E 013°25'22 4.8
2019-Jun-19 13:18N 54°55' E 013°60'2 4.2
2019-Jun-19 12:55N 54°56' E 014°02'1 3.3
2019-Jun-19 12:28N 54°56' E 014°05'2 4.0
2019-Jun-19 11:54N 54°57' E 014°08'2 4.9
2019-Jun-19 11:29N 54°58' E 014°11'3 5.2
2019-Jun-19 11:00N 54°60' E 014°15'3 5.5
2019-Jun-19 10:29N 55°01' E 014°19'3 5.5
2019-Jun-19 10:00N 55°03' E 014°23'3 5.4
2019-Jun-19 09:30N 55°04' E 014°27'3 5.7
2019-Jun-19 09:00N 55°06' E 014°31'3 5.2
2019-Jun-19 08:30N 55°07' E 014°35'2 4.0
2019-Jun-19 08:00N 55°08' E 014°38'2 3.5
2019-Jun-19 07:30N 55°06' E 014°39'1 2.0
2019-Jun-19 06:50N 55°06' E 014°42'0 0.0
2019-Jun-19 06:26N 55°06' E 014°42'0 0.0
2019-Jun-19 05:56N 55°06' E 014°42'0 0.0
2019-Jun-19 05:26N 55°06' E 014°42'0 0.0
2019-Jun-19 04:56N 55°06' E 014°42'0 0.0
2019-Jun-19 04:26N 55°06' E 014°42'0 0.0
2019-Jun-19 03:56N 55°06' E 014°42'0 0.0
2019-Jun-19 03:20N 55°06' E 014°42'0 0.1
2019-Jun-19 02:56N 55°06' E 014°42'0 0.0
2019-Jun-19 01:56N 55°06' E 014°42'0 0.0
2019-Jun-19 01:26N 55°06' E 014°42'0 0.0
2019-Jun-19 00:56N 55°06' E 014°42'0 0.0
2019-Jun-19 00:29N 55°06' E 014°42'0 0.0
2019-Jun-18 23:59N 55°06' E 014°42'0 0.0
2019-Jun-18 23:29N 55°06' E 014°42'0 0.0
2019-Jun-18 22:56N 55°06' E 014°42'0 0.0
2019-Jun-18 22:29N 55°06' E 014°42'0 0.0
2019-Jun-18 21:56N 55°06' E 014°42'0 0.0
2019-Jun-18 21:26N 55°06' E 014°42'0 0.0
2019-Jun-18 20:50N 55°06' E 014°42'0 0.0
2019-Jun-18 20:29N 55°06' E 014°42'0 0.0
2019-Jun-18 19:59N 55°06' E 014°42'0 0.0
2019-Jun-18 19:29N 55°06' E 014°42'0 0.0
2019-Jun-18 18:59N 55°06' E 014°42'0 0.0
2019-Jun-18 18:29N 55°06' E 014°42'0 0.0
2019-Jun-18 17:56N 55°06' E 014°42'0 0.0
2019-Jun-18 17:26N 55°06' E 014°42'0 0.0
2019-Jun-18 16:50N 55°06' E 014°42'0 0.0
2019-Jun-18 16:26N 55°06' E 014°42'0 0.0
2019-Jun-18 15:56N 55°06' E 014°42'0 0.0
2019-Jun-18 15:26N 55°06' E 014°42'0 0.0
2019-Jun-18 14:56N 55°06' E 014°42'0 0.0
2019-Jun-18 14:26N 55°06' E 014°42'0 0.0
2019-Jun-18 13:56N 55°06' E 014°42'0 0.0
2019-Jun-18 13:26N 55°06' E 014°42'0 0.0
2019-Jun-18 12:56N 55°06' E 014°42'0 0.0
2019-Jun-18 12:26N 55°06' E 014°42'0 0.0
2019-Jun-18 11:50N 55°06' E 014°42'0 0.0
2019-Jun-18 11:26N 55°06' E 014°42'0 0.0
2019-Jun-18 10:50N 55°06' E 014°42'0 0.0
2019-Jun-18 10:02N 55°06' E 014°42'0 0.1
2019-Jun-18 09:59N 55°06' E 014°42'0 0.0
2019-Jun-18 09:29N 55°06' E 014°42'0 0.0
2019-Jun-18 08:59N 55°06' E 014°42'0 0.0
2019-Jun-18 08:26N 55°06' E 014°42'0 0.0
2019-Jun-18 07:59N 55°06' E 014°42'0 0.3
2019-Jun-18 07:30N 55°06' E 014°42'2 3.9
2019-Jun-18 07:00N 55°05' E 014°38'2 4.7
2019-Jun-18 06:30N 55°05' E 014°34'2 4.5
2019-Jun-18 06:00N 55°04' E 014°30'2 4.4
2019-Jun-18 05:30N 55°04' E 014°27'2 4.3
2019-Jun-18 05:00N 55°03' E 014°23'2 4.3
2019-Jun-18 04:30N 55°03' E 014°19'2 4.3
2019-Jun-18 03:57N 55°02' E 014°15'2 4.4
2019-Jun-18 03:30N 55°02' E 014°12'2 4.4
2019-Jun-18 03:00N 55°01' E 014°08'65 2.4
2019-Jun-16 23:30N 55°43' E 012°41'1 2.8
2019-Jun-16 23:00N 55°44' E 012°41'1 2.8
2019-Jun-16 22:30N 55°45' E 012°40'1 2.2
2019-Jun-16 22:00N 55°46' E 012°40'1 2.3
2019-Jun-16 21:30N 55°48' E 012°39'1 2.8
2019-Jun-16 21:00N 55°49' E 012°38'2 3.0
2019-Jun-16 20:30N 55°50' E 012°37'2 3.3
2019-Jun-16 20:00N 55°52' E 012°37'2 3.7
2019-Jun-16 19:30N 55°54' E 012°37'2 4.2
2019-Jun-16 19:00N 55°56' E 012°38'2 3.7
2019-Jun-16 18:30N 55°58' E 012°38'2 3.6
2019-Jun-16 18:00N 55°59' E 012°38'2 4.1
2019-Jun-16 17:30N 56°01' E 012°38'2 3.8
2019-Jun-16 17:00N 56°03' E 012°38'2 4.2
2019-Jun-16 16:30N 56°05' E 012°35'2 3.3
2019-Jun-16 16:00N 56°06' E 012°33'3 3.4
2019-Jun-16 15:14N 56°07' E 012°29'1 4.5
2019-Jun-16 14:57N 56°08' E 012°27'4 5.5
2019-Jun-16 14:17N 56°09' E 012°21'67 3.7
2019-Jun-15 20:27N 56°48' E 010°42'3 6.6
2019-Jun-15 20:00N 56°51' E 010°43'3 6.3
2019-Jun-15 19:30N 56°54' E 010°43'4 6.1
2019-Jun-15 18:46N 56°58' E 010°44'2 6.2
2019-Jun-15 18:30N 56°60' E 010°44'3 6.2
2019-Jun-15 18:00N 57°03' E 010°43'3 6.3
2019-Jun-15 17:30N 57°06' E 010°43'3 6.2
2019-Jun-15 17:00N 57°09' E 010°42'3 5.7
2019-Jun-15 16:30N 57°12' E 010°42'2 4.8
2019-Jun-15 16:00N 57°14' E 010°41'2 4.5
2019-Jun-15 15:30N 57°16' E 010°40'2 4.0
2019-Jun-15 15:00N 57°18' E 010°39'2 3.3
2019-Jun-15 14:30N 57°20' E 010°38'2 4.2
2019-Jun-15 14:00N 57°22' E 010°37'2 4.6
2019-Jun-15 13:30N 57°24' E 010°35'2 4.0
2019-Jun-15 13:00N 57°26' E 010°34'1 1.1
2019-Jun-15 12:28N 57°26' E 010°32'0 0.0
2019-Jun-15 11:52N 57°26' E 010°32'0 0.0
2019-Jun-15 11:28N 57°26' E 010°32'0 0.0
2019-Jun-15 10:58N 57°26' E 010°32'0 0.0
2019-Jun-15 10:22N 57°26' E 010°32'0 0.0
2019-Jun-15 09:59N 57°26' E 010°32'0 0.0
2019-Jun-15 09:29N 57°26' E 010°32'0 0.0
2019-Jun-15 08:59N 57°26' E 010°32'0 0.0
2019-Jun-15 08:29N 57°26' E 010°32'0 0.0
2019-Jun-15 07:59N 57°26' E 010°32'0 0.0
2019-Jun-15 07:29N 57°26' E 010°32'0 0.0
2019-Jun-15 06:59N 57°26' E 010°32'  

Dump ship's entire track history